Time;durP1;ratioP1;P1;durP2;ratioP2;P2;SDS_P1;SDS_P2;PMS_P1;PMS_P2;Temp;Humidity;BMP_temperature;BMP_pressure;BME280_temperature;BME280_humidity;BME280_pressure;Samples;Min_cycle;Max_cycle;Signal;HPM_P1;HPM_P2
2022/03/16 00:01:11;;;;;;;36.60;27.90;;;;;;;;;;5302374;28;20043;-69
2022/03/16 00:03:42;;;;;;;41.95;28.65;;;;;;;;;;5302960;28;20513;-68
2022/03/16 00:06:13;;;;;;;38.90;29.80;;;;;;;;;;5302090;28;20051;-68
2022/03/16 00:08:44;;;;;;;39.33;27.95;;;;;;;;;;5302273;28;20023;-68
2022/03/16 00:11:16;;;;;;;43.14;30.88;;;;;;;;;;5302861;28;20028;-68
2022/03/16 00:13:47;;;;;;;40.67;30.70;;;;;;;;;;5301076;28;20040;-68
2022/03/16 00:16:19;;;;;;;42.12;31.22;;;;;;;;;;5302911;28;20461;-68
2022/03/16 00:18:50;;;;;;;44.00;31.67;;;;;;;;;;5302169;28;20024;-67
2022/03/16 00:21:21;;;;;;;44.78;32.72;;;;;;;;;;5301919;28;20436;-67
2022/03/16 00:23:53;;;;;;;44.08;31.22;;;;;;;;;;5301959;28;20382;-68
2022/03/16 00:26:24;;;;;;;43.35;33.17;;;;;;;;;;5302482;28;20395;-67
2022/03/16 00:28:55;;;;;;;43.47;32.15;;;;;;;;;;5301105;28;20098;-67
2022/03/16 00:31:26;;;;;;;42.83;31.10;;;;;;;;;;5302387;28;20055;-67
2022/03/16 00:33:57;;;;;;;40.58;31.27;;;;;;;;;;5301170;28;20568;-68
2022/03/16 00:36:29;;;;;;;44.04;32.04;;;;;;;;;;5302408;28;20016;-67
2022/03/16 00:39:00;;;;;;;46.70;33.55;;;;;;;;;;5301987;28;20020;-67
2022/03/16 00:41:33;;;;;;;46.00;33.00;;;;;;;;;;5301474;28;20043;-67
2022/03/16 00:44:05;;;;;;;46.97;33.97;;;;;;;;;;5302073;28;20016;-67
2022/03/16 00:46:36;;;;;;;44.67;33.28;;;;;;;;;;5301942;28;20085;-68
2022/03/16 00:49:08;;;;;;;42.42;32.63;;;;;;;;;;5301280;28;20020;-70
2022/03/16 00:51:39;;;;;;;45.68;34.04;;;;;;;;;;5302043;28;20093;-68
2022/03/16 00:54:10;;;;;;;44.10;32.65;;;;;;;;;;5302069;28;20016;-67
2022/03/16 00:56:41;;;;;;;42.67;33.63;;;;;;;;;;5301229;28;20063;-68
2022/03/16 00:59:12;;;;;;;47.17;34.70;;;;;;;;;;5301910;28;20020;-68
2022/03/16 01:01:43;;;;;;;46.52;33.76;;;;;;;;;;5301681;28;20082;-68
2022/03/16 01:04:15;;;;;;;48.32;35.14;;;;;;;;;;5301044;28;20416;-68
2022/03/16 01:06:46;;;;;;;41.65;31.38;;;;;;;;;;5301629;28;20478;-68
2022/03/16 01:09:17;;;;;;;39.58;29.92;;;;;;;;;;5301463;28;20095;-67
2022/03/16 01:11:48;;;;;;;40.88;31.42;;;;;;;;;;5301466;28;20070;-68
2022/03/16 01:14:19;;;;;;;41.75;31.55;;;;;;;;;;5302101;28;20096;-68
2022/03/16 01:16:50;;;;;;;49.08;33.58;;;;;;;;;;5300798;28;20145;-67
2022/03/16 01:19:22;;;;;;;42.47;30.92;;;;;;;;;;5302091;28;20087;-67
2022/03/16 01:21:53;;;;;;;47.08;32.13;;;;;;;;;;5301359;28;20027;-67
2022/03/16 01:24:24;;;;;;;42.67;31.20;;;;;;;;;;5301163;28;20016;-67
2022/03/16 01:26:56;;;;;;;39.70;30.06;;;;;;;;;;5302615;28;20012;-67
2022/03/16 01:29:27;;;;;;;39.05;30.20;;;;;;;;;;5306270;28;20024;-67
2022/03/16 01:31:58;;;;;;;44.40;30.60;;;;;;;;;;5304692;28;20012;-67
2022/03/16 01:34:29;;;;;;;37.03;28.35;;;;;;;;;;5305581;28;20076;-68
2022/03/16 01:37:01;;;;;;;41.05;29.63;;;;;;;;;;5304848;28;20339;-68
2022/03/16 01:39:33;;;;;;;40.03;30.23;;;;;;;;;;5305617;28;20118;-67
2022/03/16 01:42:04;;;;;;;43.70;30.30;;;;;;;;;;5305701;28;20070;-67
2022/03/16 01:44:43;;;;;;;41.05;31.60;;;;;;;;;;5304479;28;20016;-67
2022/03/16 01:47:15;;;;;;;40.50;31.05;;;;;;;;;;5305474;28;20054;-68
2022/03/16 01:49:47;;;;;;;43.67;31.48;;;;;;;;;;5304925;28;20523;-68
2022/03/16 01:52:19;;;;;;;41.58;30.95;;;;;;;;;;5304916;28;20020;-68
2022/03/16 01:54:50;;;;;;;40.83;29.10;;;;;;;;;;5305019;28;20043;-67
2022/03/16 01:57:22;;;;;;;40.45;29.88;;;;;;;;;;5305610;28;20060;-68
2022/03/16 01:59:54;;;;;;;40.38;29.88;;;;;;;;;;5303956;28;20024;-67
2022/03/16 02:02:25;;;;;;;36.65;28.10;;;;;;;;;;5305470;28;20016;-69
2022/03/16 02:04:56;;;;;;;38.90;29.62;;;;;;;;;;5304850;28;20028;-68
2022/03/16 02:07:27;;;;;;;39.28;29.77;;;;;;;;;;5304839;28;20408;-68
2022/03/16 02:09:59;;;;;;;39.53;27.38;;;;;;;;;;5304803;28;20028;-67
2022/03/16 02:12:40;;;;;;;36.80;27.90;;;;;;;;;;5304090;28;20051;-68
2022/03/16 02:15:12;;;;;;;36.45;27.52;;;;;;;;;;5305200;28;20375;-68
2022/03/16 02:17:43;;;;;;;34.13;25.85;;;;;;;;;;5304955;28;20024;-68
2022/03/16 02:20:14;;;;;;;36.48;26.44;;;;;;;;;;5303879;28;20056;-68
2022/03/16 02:22:53;;;;;;;31.04;24.12;;;;;;;;;;5304386;28;20012;-68
2022/03/16 02:25:24;;;;;;;;;;;;;;;;;;5305523;28;20107;-67
2022/03/16 02:27:56;;;;;;;32.47;23.38;;;;;;;;;;5303664;28;19995;-67
2022/03/16 02:30:28;;;;;;;32.58;23.80;;;;;;;;;;5305023;28;20027;-67
2022/03/16 02:32:59;;;;;;;32.25;24.70;;;;;;;;;;5304280;28;20186;-67
2022/03/16 02:35:31;;;;;;;31.20;23.92;;;;;;;;;;5303884;28;20352;-67
2022/03/16 02:38:03;;;;;;;30.80;24.17;;;;;;;;;;5303149;28;20016;-68
2022/03/16 02:40:34;;;;;;;32.13;23.45;;;;;;;;;;5303559;28;20518;-66
2022/03/16 02:43:05;;;;;;;27.65;22.75;;;;;;;;;;5304346;28;20035;-67
2022/03/16 02:45:36;;;;;;;30.48;23.35;;;;;;;;;;5304326;28;20020;-68
2022/03/16 02:48:08;;;;;;;32.42;24.83;;;;;;;;;;5303430;28;20016;-68
2022/03/16 02:50:39;;;;;;;35.35;25.00;;;;;;;;;;5304396;28;20459;-67
2022/03/16 02:53:10;;;;;;;31.90;24.80;;;;;;;;;;5304029;28;20169;-67
2022/03/16 02:55:42;;;;;;;31.90;25.38;;;;;;;;;;5303143;28;20466;-67
2022/03/16 02:58:13;;;;;;;34.08;26.27;;;;;;;;;;5304038;28;20490;-67
2022/03/16 03:00:45;;;;;;;33.92;26.70;;;;;;;;;;5303323;28;20047;-67
2022/03/16 03:03:17;;;;;;;35.25;26.73;;;;;;;;;;5303544;28;20019;-67
2022/03/16 03:05:48;;;;;;;35.45;27.08;;;;;;;;;;5303508;28;20020;-67
2022/03/16 03:08:19;;;;;;;31.50;24.45;;;;;;;;;;5304297;28;20035;-68
2022/03/16 03:10:50;;;;;;;31.17;24.73;;;;;;;;;;5302592;28;20089;-68
2022/03/16 03:13:22;;;;;;;33.12;24.08;;;;;;;;;;5303663;28;20047;-67
2022/03/16 03:15:53;;;;;;;31.77;24.48;;;;;;;;;;5302520;28;20055;-68
2022/03/16 03:18:24;;;;;;;35.94;25.74;;;;;;;;;;5303980;28;20542;-67
2022/03/16 03:20:55;;;;;;;35.72;26.48;;;;;;;;;;5303152;28;20031;-67
2022/03/16 03:23:26;;;;;;;32.86;25.84;;;;;;;;;;5303043;28;20111;-68
2022/03/16 03:25:57;;;;;;;38.08;27.00;;;;;;;;;;5303112;28;20020;-67
2022/03/16 03:28:29;;;;;;;29.78;23.92;;;;;;;;;;5303829;28;20038;-68
2022/03/16 03:31:00;;;;;;;34.30;25.90;;;;;;;;;;5302813;28;20040;-67
2022/03/16 03:33:31;;;;;;;33.63;25.35;;;;;;;;;;5303419;28;20087;-68
2022/03/16 03:36:03;;;;;;;34.67;24.92;;;;;;;;;;5303152;28;20028;-68
2022/03/16 03:38:34;;;;;;;30.67;24.33;;;;;;;;;;5302592;28;20041;-68
2022/03/16 03:41:05;;;;;;;32.95;24.73;;;;;;;;;;5303147;28;20093;-66
2022/03/16 03:43:36;;;;;;;31.90;24.33;;;;;;;;;;5302211;28;20012;-67
2022/03/16 03:46:08;;;;;;;28.00;24.02;;;;;;;;;;5302852;28;20028;-67
2022/03/16 03:48:39;;;;;;;30.80;24.32;;;;;;;;;;5303213;28;20024;-69
2022/03/16 03:51:10;;;;;;;30.73;24.27;;;;;;;;;;5302027;28;20045;-69
2022/03/16 03:53:41;;;;;;;29.40;23.95;;;;;;;;;;5303013;28;20016;-67
2022/03/16 03:56:13;;;;;;;28.62;22.60;;;;;;;;;;5302897;28;20361;-67
2022/03/16 03:58:45;;;;;;;29.72;22.90;;;;;;;;;;5302011;28;20057;-66
2022/03/16 04:01:16;;;;;;;28.90;23.15;;;;;;;;;;5303050;28;20024;-67
2022/03/16 04:03:47;;;;;;;29.58;24.23;;;;;;;;;;5302613;28;20107;-67
2022/03/16 04:06:18;;;;;;;32.62;23.84;;;;;;;;;;5302247;28;20017;-67
2022/03/16 04:08:49;;;;;;;30.70;24.22;;;;;;;;;;5302448;28;20020;-67
2022/03/16 04:11:20;;;;;;;33.35;24.90;;;;;;;;;;5302769;28;20048;-67
2022/03/16 04:13:52;;;;;;;32.14;24.48;;;;;;;;;;5301248;28;20490;-66
2022/03/16 04:16:23;;;;;;;29.06;23.26;;;;;;;;;;5302854;28;20024;-67
2022/03/16 04:18:54;;;;;;;31.80;23.70;;;;;;;;;;5301421;28;20020;-67
2022/03/16 04:21:26;;;;;;;31.85;24.52;;;;;;;;;;5302623;28;20027;-66
2022/03/16 04:23:57;;;;;;;33.67;25.88;;;;;;;;;;5301924;28;20008;-67
2022/03/16 04:26:28;;;;;;;35.85;25.98;;;;;;;;;;5301972;28;20505;-67
2022/03/16 04:28:59;;;;;;;31.20;24.40;;;;;;;;;;5302160;28;20008;-68
2022/03/16 04:31:30;;;;;;;32.65;26.00;;;;;;;;;;5302365;28;20173;-68
2022/03/16 04:34:02;;;;;;;31.00;25.38;;;;;;;;;;5301177;28;20024;-68
2022/03/16 04:36:33;;;;;;;33.22;26.52;;;;;;;;;;5302389;28;20370;-67
2022/03/16 04:39:04;;;;;;;30.95;25.42;;;;;;;;;;5302287;28;20008;-67
2022/03/16 04:41:36;;;;;;;34.22;26.00;;;;;;;;;;5301265;28;20032;-67
2022/03/16 04:44:07;;;;;;;35.20;27.22;;;;;;;;;;5302093;28;20016;-68
2022/03/16 04:46:38;;;;;;;33.22;26.52;;;;;;;;;;5302150;28;20020;-67
2022/03/16 04:49:09;;;;;;;34.85;28.33;;;;;;;;;;5301139;28;20016;-67
2022/03/16 04:51:40;;;;;;;32.83;26.08;;;;;;;;;;5302035;28;20023;-67
2022/03/16 04:54:12;;;;;;;34.83;26.92;;;;;;;;;;5301333;28;20415;-67
2022/03/16 04:56:43;;;;;;;37.17;28.42;;;;;;;;;;5301952;28;20030;-67
2022/03/16 04:59:14;;;;;;;36.22;28.08;;;;;;;;;;5301810;28;20509;-67
2022/03/16 05:01:45;;;;;;;35.75;27.48;;;;;;;;;;5302007;28;20032;-67
2022/03/16 05:04:16;;;;;;;34.17;26.35;;;;;;;;;;5306481;28;20023;-66
2022/03/16 05:06:48;;;;;;;33.35;27.05;;;;;;;;;;5306120;28;20541;-67
2022/03/16 05:09:19;;;;;;;31.84;26.40;;;;;;;;;;5305861;28;20022;-66
2022/03/16 05:11:50;;;;;;;35.80;27.50;;;;;;;;;;5305655;28;20040;-67
2022/03/16 05:14:21;;;;;;;32.63;26.80;;;;;;;;;;5306678;28;20012;-67
2022/03/16 05:16:53;;;;;;;34.02;27.08;;;;;;;;;;5305017;28;20043;-66
2022/03/16 05:19:26;;;;;;;34.53;27.88;;;;;;;;;;5306189;28;20016;-66
2022/03/16 05:21:57;;;;;;;33.70;27.20;;;;;;;;;;5305793;28;20023;-67
2022/03/16 05:24:28;;;;;;;31.45;26.20;;;;;;;;;;5305932;28;20020;-66
2022/03/16 05:27:00;;;;;;;32.68;26.40;;;;;;;;;;5305883;28;20096;-67
2022/03/16 05:29:31;;;;;;;35.83;26.95;;;;;;;;;;5305339;28;20020;-68
2022/03/16 05:32:02;;;;;;;34.65;26.20;;;;;;;;;;5305832;28;20012;-68
2022/03/16 05:34:33;;;;;;;31.10;25.02;;;;;;;;;;5305704;28;20024;-68
2022/03/16 05:37:05;;;;;;;30.42;26.26;;;;;;;;;;5304690;28;20115;-68
2022/03/16 05:39:36;;;;;;;31.05;25.63;;;;;;;;;;5305591;28;20020;-68
2022/03/16 05:42:08;;;;;;;31.02;24.24;;;;;;;;;;5305468;28;20374;-67
2022/03/16 05:44:39;;;;;;;31.73;24.40;;;;;;;;;;5304767;28;20043;-67
2022/03/16 05:47:11;;;;;;;30.38;23.20;;;;;;;;;;5305501;28;20028;-68
2022/03/16 05:49:43;;;;;;;28.95;23.60;;;;;;;;;;5305675;28;20462;-68
2022/03/16 05:52:15;;;;;;;29.35;24.48;;;;;;;;;;5304698;28;20047;-68
2022/03/16 05:54:51;;;;;;;30.63;22.63;;;;;;;;;;5305172;28;20015;-67
2022/03/16 05:57:22;;;;;;;28.50;22.92;;;;;;;;;;5304827;28;20019;-67
2022/03/16 05:59:53;;;;;;;33.30;23.95;;;;;;;;;;5304948;28;20032;-67
2022/03/16 06:02:25;;;;;;;29.82;23.08;;;;;;;;;;5305717;28;20393;-68
2022/03/16 06:04:56;;;;;;;28.63;22.45;;;;;;;;;;5304355;28;20028;-67
2022/03/16 06:07:27;;;;;;;29.60;22.50;;;;;;;;;;5305441;28;20020;-68
2022/03/16 06:09:58;;;;;;;27.74;23.34;;;;;;;;;;5304813;28;20024;-68
2022/03/16 06:12:29;;;;;;;28.35;21.58;;;;;;;;;;5303704;28;20078;-67
2022/03/16 06:15:00;;;;;;;28.08;20.72;;;;;;;;;;5305271;28;20032;-68
2022/03/16 06:17:31;;;;;;;28.30;21.84;;;;;;;;;;5304974;28;20163;-68
2022/03/16 06:20:03;;;;;;;27.48;21.02;;;;;;;;;;5304491;28;20031;-68
2022/03/16 06:22:34;;;;;;;26.70;20.80;;;;;;;;;;5304780;28;20024;-68
2022/03/16 06:25:05;;;;;;;23.88;19.60;;;;;;;;;;5304922;28;20028;-69
2022/03/16 06:27:36;;;;;;;25.33;20.02;;;;;;;;;;5304026;28;20020;-68
2022/03/16 06:30:08;;;;;;;24.26;18.90;;;;;;;;;;5304769;28;20020;-68
2022/03/16 06:32:42;;;;;;;24.75;19.35;;;;;;;;;;5303797;28;20024;-68
2022/03/16 06:35:14;;;;;;;22.80;18.40;;;;;;;;;;5304282;28;20027;-67
2022/03/16 06:37:45;;;;;;;22.40;17.85;;;;;;;;;;5304074;28;20008;-68
2022/03/16 06:40:16;;;;;;;22.27;17.75;;;;;;;;;;5304012;28;20024;-68
2022/03/16 06:42:52;;;;;;;23.60;17.52;;;;;;;;;;5303773;28;20060;-68
2022/03/16 06:45:24;;;;;;;20.85;17.52;;;;;;;;;;5304659;28;20016;-68
2022/03/16 06:47:59;;;;;;;21.30;18.00;;;;;;;;;;5303425;28;20012;-67
2022/03/16 06:50:31;;;;;;;22.73;18.35;;;;;;;;;;5304088;28;20020;-67
2022/03/16 06:53:02;;;;;;;24.17;17.50;;;;;;;;;;5304302;28;20388;-67
2022/03/16 06:55:33;;;;;;;19.25;16.27;;;;;;;;;;5303241;28;20024;-67
2022/03/16 06:58:04;;;;;;;18.92;14.45;;;;;;;;;;5304003;28;20520;-67
2022/03/16 07:00:35;;;;;;;16.00;12.82;;;;;;;;;;5303297;28;20040;-67
2022/03/16 07:03:06;;;;;;;16.20;14.28;;;;;;;;;;5303821;28;20020;-67
2022/03/16 07:05:39;;;;;;;15.45;13.27;;;;;;;;;;5303969;28;20024;-67
2022/03/16 07:08:11;;;;;;;16.60;13.73;;;;;;;;;;5303047;28;20364;-67
2022/03/16 07:10:43;;;;;;;15.65;12.40;;;;;;;;;;5303675;28;20024;-68
2022/03/16 07:13:14;;;;;;;14.05;11.68;;;;;;;;;;5303621;28;20059;-67
2022/03/16 07:15:46;;;;;;;11.80;9.73;;;;;;;;;;5302748;28;20016;-68
2022/03/16 07:18:19;;;;;;;13.57;10.88;;;;;;;;;;5304240;28;20095;-68
2022/03/16 07:20:51;;;;;;;12.57;9.93;;;;;;;;;;5303083;28;20494;-68
2022/03/16 07:23:22;;;;;;;11.27;9.65;;;;;;;;;;5303277;28;20099;-68
2022/03/16 07:25:53;;;;;;;10.45;8.73;;;;;;;;;;5302435;28;20106;-68
2022/03/16 07:28:24;;;;;;;14.93;9.20;;;;;;;;;;5303759;28;20057;-68
2022/03/16 07:30:55;;;;;;;14.13;10.18;;;;;;;;;;5302327;28;20633;-68
2022/03/16 07:33:26;;;;;;;10.60;9.10;;;;;;;;;;5303509;28;20266;-68
2022/03/16 07:35:58;;;;;;;10.60;9.25;;;;;;;;;;5302227;28;20278;-68
2022/03/16 07:38:29;;;;;;;10.70;9.60;;;;;;;;;;5303521;28;20270;-68
2022/03/16 07:41:02;;;;;;;11.75;9.32;;;;;;;;;;5303177;28;20036;-67
2022/03/16 07:43:34;;;;;;;12.63;9.48;;;;;;;;;;5302229;28;20150;-68
2022/03/16 07:46:05;;;;;;;11.82;9.75;;;;;;;;;;5303020;28;20024;-68
2022/03/16 07:48:37;;;;;;;11.15;9.85;;;;;;;;;;5302987;28;20054;-68
2022/03/16 07:51:09;;;;;;;14.80;9.35;;;;;;;;;;5302010;28;20463;-68
2022/03/16 07:53:40;;;;;;;12.50;9.18;;;;;;;;;;5302734;28;20073;-68
2022/03/16 07:56:11;;;;;;;12.60;9.93;;;;;;;;;;5302867;28;20416;-70
2022/03/16 07:58:43;;;;;;;12.77;9.85;;;;;;;;;;5302171;28;20073;-70
2022/03/16 08:01:14;;;;;;;12.60;9.98;;;;;;;;;;5302692;28;20086;-69
2022/03/16 08:03:46;;;;;;;13.10;10.52;;;;;;;;;;5302637;28;20036;-69
2022/03/16 08:06:17;;;;;;;13.15;9.75;;;;;;;;;;5302425;28;20280;-69
2022/03/16 08:08:48;;;;;;;11.20;9.35;;;;;;;;;;5302009;28;20430;-69
2022/03/16 08:11:20;;;;;;;12.48;9.50;;;;;;;;;;5302303;28;20034;-69
2022/03/16 08:13:51;;;;;;;11.40;9.65;;;;;;;;;;5302070;28;20286;-69
2022/03/16 08:16:23;;;;;;;12.77;9.80;;;;;;;;;;5299575;28;20039;-69
2022/03/16 08:18:54;;;;;;;12.00;9.68;;;;;;;;;;5299916;28;20110;-69
2022/03/16 08:21:25;;;;;;;10.90;9.77;;;;;;;;;;5301681;28;20111;-69
2022/03/16 08:23:57;;;;;;;10.85;9.75;;;;;;;;;;5300702;28;20327;-69
2022/03/16 08:26:28;;;;;;;10.90;9.75;;;;;;;;;;5313808;27;20019;-69
2022/03/16 08:28:59;;;;;;;11.95;10.10;;;;;;;;;;5343173;27;20027;-69
2022/03/16 08:31:30;;;;;;;14.30;10.52;;;;;;;;;;5343426;27;20043;-69
2022/03/16 08:34:02;;;;;;;12.25;10.55;;;;;;;;;;5343301;27;20253;-69
2022/03/16 08:36:33;;;;;;;12.15;10.20;;;;;;;;;;5343796;27;20147;-69
2022/03/16 08:39:05;;;;;;;11.85;10.45;;;;;;;;;;5342823;27;20027;-69
2022/03/16 08:41:36;;;;;;;12.73;10.05;;;;;;;;;;5344632;27;20297;-69
2022/03/16 08:44:08;;;;;;;11.73;10.10;;;;;;;;;;5344742;27;20098;-69
2022/03/16 08:46:39;;;;;;;11.90;10.07;;;;;;;;;;5343954;27;20265;-68
2022/03/16 08:49:10;;;;;;;15.25;10.23;;;;;;;;;;5344553;27;20019;-69
2022/03/16 08:51:41;;;;;;;11.73;10.40;;;;;;;;;;5344499;27;20311;-69
2022/03/16 08:54:12;;;;;;;14.07;10.98;;;;;;;;;;5343500;27;20257;-69
2022/03/16 08:56:44;;;;;;;12.07;10.52;;;;;;;;;;5344556;28;20057;-69
2022/03/16 08:59:15;;;;;;;15.55;11.52;;;;;;;;;;5344578;28;20198;-69
2022/03/16 09:01:46;;;;;;;12.45;10.07;;;;;;;;;;5343175;28;20473;-69
2022/03/16 09:04:17;;;;;;;14.07;10.10;;;;;;;;;;5344617;28;20755;-69
2022/03/16 09:06:48;;;;;;;14.80;11.13;;;;;;;;;;5343823;28;20681;-69
2022/03/16 09:09:20;;;;;;;14.13;10.75;;;;;;;;;;5343721;28;20027;-69
2022/03/16 09:11:51;;;;;;;13.43;11.00;;;;;;;;;;5344119;28;20260;-69
2022/03/16 09:14:22;;;;;;;15.35;12.50;;;;;;;;;;5344080;28;20068;-69
2022/03/16 09:16:53;;;;;;;14.52;11.20;;;;;;;;;;5344212;28;20098;-69
2022/03/16 09:19:24;;;;;;;16.55;11.40;;;;;;;;;;5344774;28;20265;-69
2022/03/16 09:21:56;;;;;;;14.57;11.98;;;;;;;;;;5342890;28;20304;-69
2022/03/16 09:24:28;;;;;;;14.68;11.57;;;;;;;;;;5344664;28;20728;-69
2022/03/16 09:26:59;;;;;;;14.88;11.77;;;;;;;;;;5344147;28;20015;-69
2022/03/16 09:29:31;;;;;;;13.00;10.20;;;;;;;;;;5343435;28;20015;-70
2022/03/16 09:32:02;;;;;;;13.70;11.90;;;;;;;;;;5344220;28;20023;-68
2022/03/16 09:34:34;;;;;;;13.38;10.88;;;;;;;;;;5344357;28;20026;-70
2022/03/16 09:37:05;;;;;;;14.70;11.25;;;;;;;;;;5343499;28;20034;-68
2022/03/16 09:39:37;;;;;;;16.05;11.98;;;;;;;;;;5344222;28;20046;-68
2022/03/16 09:42:09;;;;;;;14.52;10.82;;;;;;;;;;5343973;28;20264;-69
2022/03/16 09:44:41;;;;;;;18.33;10.95;;;;;;;;;;5343432;28;20099;-69
2022/03/16 09:47:12;;;;;;;14.55;10.75;;;;;;;;;;5344419;27;20023;-69
2022/03/16 09:49:43;;;;;;;14.40;10.90;;;;;;;;;;5347440;27;20053;-69
2022/03/16 09:52:15;;;;;;;13.35;11.05;;;;;;;;;;5347815;27;20019;-69
2022/03/16 09:54:46;;;;;;;15.23;10.32;;;;;;;;;;5346466;27;20098;-69
2022/03/16 09:57:18;;;;;;;14.07;10.45;;;;;;;;;;5346936;27;20026;-69
2022/03/16 09:59:49;;;;;;;13.63;11.67;;;;;;;;;;5347198;27;20046;-70
2022/03/16 10:02:21;;;;;;;12.57;10.27;;;;;;;;;;5347874;27;20268;-69
2022/03/16 10:04:55;;;;;;;11.65;9.63;;;;;;;;;;5346415;27;20318;-69
2022/03/16 10:07:28;;;;;;;16.88;11.57;;;;;;;;;;5347987;27;20372;-69
2022/03/16 10:15:39;;;;;;;13.85;11.27;;;;;;;;;;5347675;27;20011;-69
2022/03/16 10:18:14;;;;;;;15.13;11.85;;;;;;;;;;5346606;27;20402;-69
2022/03/16 10:20:45;;;;;;;12.82;11.43;;;;;;;;;;5346963;27;20296;-69
2022/03/16 10:23:24;;;;;;;14.77;11.13;;;;;;;;;;5347809;27;20016;-69
2022/03/16 10:25:59;;;;;;;13.52;11.55;;;;;;;;;;5346175;27;20458;-70
2022/03/16 10:28:31;;;;;;;15.90;11.05;;;;;;;;;;5347454;27;20144;-70
2022/03/16 10:31:05;;;;;;;15.63;11.15;;;;;;;;;;5347459;27;20047;-70
2022/03/16 10:33:47;;;;;;;14.20;11.27;;;;;;;;;;5346530;27;20030;-70
2022/03/16 10:36:20;;;;;;;10.70;9.48;;;;;;;;;;5347639;27;20030;-71
2022/03/16 10:38:52;;;;;;;13.55;9.35;;;;;;;;;;5345914;27;20499;-71
2022/03/16 10:47:17;;;;;;;10.32;9.32;;;;;;;;;;5346283;27;20477;-71
2022/03/16 10:50:00;;;;;;;13.38;9.57;;;;;;;;;;5346812;27;20227;-70
2022/03/16 10:52:34;;;;;;;10.77;9.40;;;;;;;;;;5347031;27;20015;-71
2022/03/16 10:55:05;;;;;;;13.70;10.80;;;;;;;;;;5346343;27;20493;-71
2022/03/16 10:57:38;;;;;;;17.52;11.68;;;;;;;;;;5346759;27;20115;-71
2022/03/16 11:00:09;;;;;;;14.55;10.32;;;;;;;;;;5344943;27;20359;-71
2022/03/16 11:02:42;;;;;;;15.07;9.82;;;;;;;;;;5346849;27;20037;-71
2022/03/16 11:05:18;;;;;;;11.88;9.43;;;;;;;;;;5346903;27;20016;-68
2022/03/16 11:07:50;;;;;;;10.55;9.45;;;;;;;;;;5345539;27;20015;-69
2022/03/16 11:10:22;;;;;;;11.02;8.95;;;;;;;;;;5346954;27;20063;-71
2022/03/16 11:15:43;;;;;;;11.98;8.90;;;;;;;;;;5345761;27;20102;-71
2022/03/16 11:18:14;;;;;;;11.68;9.38;;;;;;;;;;5346392;27;20064;-70
2022/03/16 11:20:49;;;;;;;10.83;8.67;;;;;;;;;;5345416;27;20541;-71
2022/03/16 11:26:23;;;;;;;11.05;9.95;;;;;;;;;;5346659;27;20051;-72
2022/03/16 11:29:08;;;;;;;9.68;8.68;;;;;;;;;;5344957;27;20015;-72
2022/03/16 11:31:42;;;;;;;10.27;8.63;;;;;;;;;;5346422;27;20023;-72
2022/03/16 11:34:21;;;;;;;12.98;8.57;;;;;;;;;;5345929;27;20015;-72
2022/03/16 11:36:59;;;;;;;9.48;8.20;;;;;;;;;;5345043;27;20094;-72
2022/03/16 11:39:44;;;;;;;9.88;8.85;;;;;;;;;;5345930;27;20427;-72
2022/03/16 11:42:16;;;;;;;9.15;8.25;;;;;;;;;;5345601;27;20023;-70
2022/03/16 11:44:47;;;;;;;11.63;9.65;;;;;;;;;;5345570;27;20027;-73
2022/03/16 11:47:22;;;;;;;11.52;9.93;;;;;;;;;;5346215;27;20037;-72
2022/03/16 11:50:13;;;;;;;13.20;9.35;;;;;;;;;;5344903;27;20022;-70
2022/03/16 11:52:59;;;;;;;11.98;9.43;;;;;;;;;;5345558;27;20044;-71
2022/03/16 11:55:38;;;;;;;11.52;9.10;;;;;;;;;;5345619;27;20023;-72
2022/03/16 11:58:16;;;;;;;10.38;9.27;;;;;;;;;;5344465;27;20030;-71
2022/03/16 12:00:48;;;;;;;12.23;10.38;;;;;;;;;;5345030;27;20023;-72
2022/03/16 12:03:21;;;;;;;10.88;9.02;;;;;;;;;;5345026;27;20407;-71
2022/03/16 12:05:56;;;;;;;10.07;8.68;;;;;;;;;;5345065;27;20022;-71
2022/03/16 12:08:32;;;;;;;13.30;9.35;;;;;;;;;;5345127;27;20030;-72
2022/03/16 12:13:54;;;;;;;14.20;9.77;;;;;;;;;;5344826;27;20074;-72
2022/03/16 12:16:25;;;;;;;11.15;9.18;;;;;;;;;;5345630;27;20028;-71
2022/03/16 12:18:56;;;;;;;12.23;9.90;;;;;;;;;;5344280;27;20018;-72
2022/03/16 12:21:33;;;;;;;10.52;8.55;;;;;;;;;;5345604;27;20031;-71
2022/03/16 12:25:08;;;;;;;9.93;8.13;;;;;;;;;;5344360;27;20272;-70
2022/03/16 12:29:57;;;;;;;10.10;9.10;;;;;;;;;;5320227;27;20041;-67
2022/03/16 12:32:32;;;;;;;10.20;9.07;;;;;;;;;;5344620;27;20027;-68
2022/03/16 12:35:04;;;;;;;10.00;8.65;;;;;;;;;;5344906;27;20421;-69
2022/03/16 12:37:46;;;;;;;9.30;8.25;;;;;;;;;;5344609;27;20038;-69
2022/03/16 12:40:20;;;;;;;13.95;9.13;;;;;;;;;;5344432;27;20027;-69
2022/03/16 12:42:53;;;;;;;15.93;9.70;;;;;;;;;;5344422;27;20023;-69
2022/03/16 12:45:28;;;;;;;12.38;7.50;;;;;;;;;;5344187;27;20148;-69
2022/03/16 12:48:04;;;;;;;12.88;8.52;;;;;;;;;;5344300;27;20015;-69
2022/03/16 12:50:35;;;;;;;10.82;8.50;;;;;;;;;;5344689;27;20461;-69
2022/03/16 12:53:06;;;;;;;17.00;8.68;;;;;;;;;;5343921;27;20011;-69
2022/03/16 12:55:53;;;;;;;9.00;7.88;;;;;;;;;;5344245;27;20279;-69
2022/03/16 12:58:26;;;;;;;10.05;8.60;;;;;;;;;;5344889;27;20749;-69
2022/03/16 13:00:58;;;;;;;15.20;8.70;;;;;;;;;;5343618;28;20073;-68
2022/03/16 13:03:29;;;;;;;11.73;8.65;;;;;;;;;;5344860;28;20100;-69
2022/03/16 13:06:00;;;;;;;13.03;7.50;;;;;;;;;;5344317;28;20148;-69
2022/03/16 13:08:33;;;;;;;13.38;7.85;;;;;;;;;;5343880;28;20268;-69
2022/03/16 13:11:16;;;;;;;11.52;7.95;;;;;;;;;;5344513;28;20027;-70
2022/03/16 13:13:58;;;;;;;9.77;7.70;;;;;;;;;;5343104;28;20134;-68
2022/03/16 13:16:31;;;;;;;12.38;8.10;;;;;;;;;;5344507;28;20047;-70
2022/03/16 13:19:03;;;;;;;12.10;8.25;;;;;;;;;;5343921;28;20050;-70
2022/03/16 13:21:35;;;;;;;12.00;7.72;;;;;;;;;;5343561;27;20476;-69
2022/03/16 13:24:08;;;;;;;12.00;8.27;;;;;;;;;;5347925;27;20023;-68
2022/03/16 13:26:39;;;;;;;10.75;8.73;;;;;;;;;;5348522;27;20019;-70
2022/03/16 13:29:10;;;;;;;10.75;8.90;;;;;;;;;;5348132;27;20584;-68
2022/03/16 13:31:42;;;;;;;11.40;8.35;;;;;;;;;;5348475;27;20035;-69
2022/03/16 13:34:14;;;;;;;11.63;9.23;;;;;;;;;;5348643;27;20016;-69
2022/03/16 13:36:45;;;;;;;12.48;8.98;;;;;;;;;;5347026;27;20015;-69
2022/03/16 13:39:22;;;;;;;10.38;9.27;;;;;;;;;;5348272;27;20022;-69
2022/03/16 13:42:10;;;;;;;9.77;8.68;;;;;;;;;;5345890;27;20046;-69
2022/03/16 13:44:44;;;;;;;15.13;9.35;;;;;;;;;;5331048;27;20020;-69
2022/03/16 13:47:15;;;;;;;14.05;7.97;;;;;;;;;;5315584;28;20481;-70
2022/03/16 13:49:56;;;;;;;9.18;8.27;;;;;;;;;;5310892;28;20063;-70
2022/03/16 13:52:34;;;;;;;9.68;8.68;;;;;;;;;;5305654;28;20020;-70
2022/03/16 13:55:07;;;;;;;11.15;8.35;;;;;;;;;;5305702;28;20545;-70
2022/03/16 13:57:42;;;;;;;12.60;8.73;;;;;;;;;;5304703;28;20032;-70
2022/03/16 14:00:14;;;;;;;11.43;8.68;;;;;;;;;;5300775;28;20016;-69
2022/03/16 14:02:45;;;;;;;9.48;8.13;;;;;;;;;;5302615;28;20093;-70
2022/03/16 14:05:19;;;;;;;15.57;8.82;;;;;;;;;;5305493;28;20015;-70
2022/03/16 14:07:53;;;;;;;13.65;8.05;;;;;;;;;;5305101;28;20385;-70
2022/03/16 14:10:24;;;;;;;11.73;8.00;;;;;;;;;;5304699;28;20090;-70
2022/03/16 14:13:03;;;;;;;11.50;8.23;;;;;;;;;;5304699;28;20044;-70
2022/03/16 14:15:34;;;;;;;8.95;7.50;;;;;;;;;;5305010;28;20028;-70
2022/03/16 14:18:12;;;;;;;10.77;7.38;;;;;;;;;;5304415;28;20012;-70
2022/03/16 14:20:45;;;;;;;9.13;7.47;;;;;;;;;;5304985;28;20028;-70
2022/03/16 14:23:16;;;;;;;9.77;7.22;;;;;;;;;;5305297;28;20262;-69
2022/03/16 14:25:52;;;;;;;11.30;7.87;;;;;;;;;;5303452;28;20024;-70
2022/03/16 14:28:23;;;;;;;11.88;7.68;;;;;;;;;;5305330;28;20771;-70
2022/03/16 14:30:55;;;;;;;9.38;7.15;;;;;;;;;;5302864;28;20028;-70
2022/03/16 14:33:29;;;;;;;11.45;8.07;;;;;;;;;;5304684;28;20099;-70
2022/03/16 14:36:01;;;;;;;10.60;7.30;;;;;;;;;;5304459;28;20016;-69
2022/03/16 14:38:35;;;;;;;11.80;7.93;;;;;;;;;;5303414;28;20012;-70
2022/03/16 14:41:07;;;;;;;11.55;7.85;;;;;;;;;;5300386;28;20076;-69
2022/03/16 14:43:38;;;;;;;12.40;9.13;;;;;;;;;;5304315;28;20392;-69
2022/03/16 14:46:11;;;;;;;11.55;7.95;;;;;;;;;;5303228;28;20031;-70
2022/03/16 14:48:42;;;;;;;8.60;7.80;;;;;;;;;;5304194;28;20281;-69
2022/03/16 14:51:13;;;;;;;13.98;7.65;;;;;;;;;;5303991;28;20024;-68
2022/03/16 14:53:44;;;;;;;11.55;8.10;;;;;;;;;;5303343;28;20336;-69
2022/03/16 14:56:16;;;;;;;10.18;8.80;;;;;;;;;;5304697;28;20076;-70
2022/03/16 14:58:47;;;;;;;8.98;7.88;;;;;;;;;;5303600;28;20258;-70
2022/03/16 15:01:19;;;;;;;10.63;8.07;;;;;;;;;;5304144;28;20633;-69
2022/03/16 15:03:50;;;;;;;9.85;8.20;;;;;;;;;;5303945;28;20080;-71
2022/03/16 15:06:21;;;;;;;10.18;8.52;;;;;;;;;;5303647;28;20012;-69
2022/03/16 15:08:54;;;;;;;9.63;8.60;;;;;;;;;;5303619;28;20099;-69
2022/03/16 15:11:25;;;;;;;9.88;7.88;;;;;;;;;;5304296;28;20274;-70
2022/03/16 15:13:59;;;;;;;11.73;7.90;;;;;;;;;;5302488;28;20101;-70
2022/03/16 15:16:30;;;;;;;14.52;7.70;;;;;;;;;;5303863;28;20278;-70